Ely, MN (55731)

1:30 PM CDT on August 24, 2016 (GMT -0500)
Ely near the school | | Change Station

Elev 1473 ft 47.90 °N, 91.86 °W | Updated 6 minutes ago

Overcast
Overcast
73.0 °F
Feels Like 71 °F
N
0.0
Wind Variable Wind from SSW

Today
High -- | Low -- °F
--% Chance of Precip.
Yesterday
High -- | Low -- °F
Precip. -- in
Pressure 29.81 in
Visibility 10.0 miles
Clouds Scattered Clouds 2300 ft
Scattered Clouds 3400 ft
Overcast 4300 ft
Heat Index 71 °F
Dew Point 70 °F
Humidity 89%
Rainfall 0.04 in
Snow Depth Not available.
6:15 AM 8:02 PM
Waning Gibbous, 54% visible
METAR KELO 241813Z AUTO 25005KT 10SM SCT023 SCT034 OVC043 22/19 A2981 RMK AO2
Pressure 29.81 in
Visibility 10.0 miles
Clouds Scattered Clouds 2300 ft
Scattered Clouds 3400 ft
Overcast 4300 ft
Heat Index 71 °F
Dew Point 70 °F
Humidity 89%
Rainfall 0.04 in
Snow Depth Not available.
6:15 AM 8:02 PM
Waning Gibbous, 54% visible
METAR KELO 241813Z AUTO 25005KT 10SM SCT023 SCT034 OVC043 22/19 A2981 RMK AO2

10-Day Weather Forecast

Almanac

Astronomy

Aug. 24, 2016 Rise Set
Actual Time
Civil Twilight
Nautical Twilight
Astronomical Twilight
Moon
Length of Visible Light
Length of Day
Tomorrow will be .
, % of the Moon is Illuminated

Today's Extremes

State Highs State Lows

Community

WunderPhotos

Upload Photos

1,934,664 photos uploaded!

WunderBlog® & News

Nearby

Air Quality

  Air Quality AQ Index Pollutant
Not available.

Snow Depth

Station Depth Elevation

Earthquake Activity

City Distance Mag. Time & Date
Minimum magnitude displayed is 2.5.

Coastal Water Temperatures

Place Temperature

Stations

Nearby Weather Stations

Station Location Temp. Windchill Dew Point Humidity Wind Precip. Elev Updated Type
                   

Watches & Warnings

There are currently no watches in effect.